createdAt,value
2018-01-23T00:02:05.199Z,2.00
2018-01-23T00:07:27.338Z,1.90
2018-01-23T00:09:57.354Z,2.00
2018-01-23T00:12:43.483Z,2.00
2018-01-23T00:21:00.594Z,2.10
2018-01-23T00:23:48.282Z,2.10
2018-01-23T00:26:29.040Z,2.10
2018-01-23T00:28:58.058Z,2.10
2018-01-23T00:31:41.330Z,2.10
2018-01-23T00:34:11.010Z,2.10
2018-01-23T00:36:42.474Z,2.10
2018-01-23T00:39:21.794Z,2.10
2018-01-23T00:41:55.426Z,2.10
2018-01-23T00:44:48.394Z,2.00
2018-01-23T00:47:35.098Z,2.00
2018-01-23T00:50:18.810Z,2.00
2018-01-23T00:52:54.936Z,2.00
2018-01-23T01:07:03.950Z,2.00
2018-01-23T01:15:57.921Z,2.00
2018-01-23T01:18:48.306Z,2.00
2018-01-23T01:24:45.286Z,2.00
2018-01-23T01:27:19.830Z,2.00
2018-01-23T01:30:03.971Z,2.10
2018-01-23T01:32:52.289Z,2.10
2018-01-23T01:38:27.666Z,2.00
2018-01-23T01:41:02.138Z,2.00
2018-01-23T01:43:46.670Z,2.00
2018-01-23T01:46:32.118Z,2.00
2018-01-23T01:49:21.606Z,2.00
2018-01-23T02:03:38.489Z,2.00
2018-01-23T02:06:23.017Z,2.00
2018-01-23T02:17:40.042Z,2.00
2018-01-23T02:20:26.682Z,2.00
2018-01-23T02:25:51.246Z,2.10
2018-01-23T02:34:33.254Z,2.10
2018-01-23T02:48:54.242Z,2.10
2018-01-23T02:51:44.730Z,2.00
2018-01-23T02:57:06.642Z,2.00
2018-01-23T03:02:32.661Z,2.00
2018-01-23T03:05:02.666Z,2.00
2018-01-23T03:07:34.121Z,2.10
2018-01-23T03:13:06.902Z,2.10
2018-01-23T03:18:51.858Z,2.10
2018-01-23T03:21:23.570Z,2.20
2018-01-23T03:23:52.558Z,2.10
2018-01-23T03:26:38.886Z,2.10
2018-01-23T03:29:09.578Z,2.10
2018-01-23T03:31:40.121Z,2.10
2018-01-23T03:34:13.841Z,2.10
2018-01-23T03:36:55.294Z,2.20
2018-01-23T03:42:38.022Z,2.20
2018-01-23T03:45:06.050Z,2.20
2018-01-23T03:53:21.846Z,2.20
2018-01-23T03:55:55.814Z,2.20
2018-01-23T03:58:29.350Z,2.20
2018-01-23T04:01:05.218Z,2.20
2018-01-23T04:03:33.274Z,2.20
2018-01-23T04:06:07.881Z,2.20
2018-01-23T04:08:42.606Z,2.20
2018-01-23T04:11:21.382Z,2.10
2018-01-23T04:13:56.250Z,2.00
2018-01-23T04:16:27.394Z,2.00
2018-01-23T04:18:55.418Z,1.90
2018-01-23T04:21:26.226Z,1.90
2018-01-23T04:23:55.038Z,1.90
2018-01-23T04:26:31.125Z,1.90
2018-01-23T04:29:02.341Z,1.90
2018-01-23T04:31:41.081Z,1.90
2018-01-23T04:34:20.007Z,1.90
2018-01-23T04:36:54.061Z,1.90
2018-01-23T04:39:30.425Z,1.90
2018-01-23T04:42:08.713Z,1.90
2018-01-23T04:44:37.800Z,1.90
2018-01-23T04:47:05.781Z,2.00
2018-01-23T04:49:34.796Z,2.00
2018-01-23T04:52:07.066Z,2.00
2018-01-23T04:54:35.074Z,2.10
2018-01-23T04:57:26.402Z,2.10
2018-01-23T04:59:55.345Z,2.10
2018-01-23T05:02:28.942Z,2.00
2018-01-23T05:05:00.877Z,2.00
2018-01-23T05:07:50.327Z,1.90
2018-01-23T05:10:25.521Z,1.90
2018-01-23T05:12:55.529Z,1.80
2018-01-23T05:15:33.817Z,1.80
2018-01-23T05:18:05.107Z,1.80
2018-01-23T05:20:34.885Z,1.90
2018-01-23T05:23:06.457Z,1.90
2018-01-23T05:25:37.165Z,2.00
2018-01-23T05:28:07.439Z,2.00
2018-01-23T05:30:43.968Z,2.10
2018-01-23T05:33:18.456Z,2.10
2018-01-23T05:35:46.469Z,2.10
2018-01-23T05:38:26.078Z,2.10
2018-01-23T05:41:10.213Z,2.10
2018-01-23T05:43:45.773Z,2.10
2018-01-23T05:46:20.113Z,2.10
2018-01-23T05:48:48.113Z,2.10
2018-01-23T05:51:35.237Z,2.00
2018-01-23T05:54:05.177Z,2.00
2018-01-23T05:56:35.157Z,2.10
2018-01-23T05:59:08.927Z,2.10
2018-01-23T06:01:56.094Z,2.10
2018-01-23T06:04:30.725Z,2.20
2018-01-23T06:09:53.941Z,2.30
2018-01-23T06:12:22.945Z,2.30
2018-01-23T06:14:56.133Z,2.30
2018-01-23T06:17:29.409Z,2.30
2018-01-23T06:20:16.277Z,2.30
2018-01-23T06:22:54.313Z,2.30
2018-01-23T06:25:26.249Z,2.30
2018-01-23T06:28:00.213Z,2.30
2018-01-23T06:30:31.953Z,2.30
2018-01-23T06:35:54.729Z,2.40
2018-01-23T06:38:23.718Z,2.40
2018-01-23T06:40:51.833Z,2.40
2018-01-23T06:43:20.761Z,2.40
2018-01-23T06:45:52.993Z,2.40
2018-01-23T06:51:25.925Z,2.40
2018-01-23T06:53:55.873Z,2.40
2018-01-23T06:56:29.233Z,2.40
2018-01-23T06:58:57.449Z,2.40
2018-01-23T07:01:26.429Z,2.30
2018-01-23T07:04:16.169Z,2.30
2018-01-23T07:06:44.189Z,2.40
2018-01-23T07:09:12.414Z,2.30
2018-01-23T07:11:40.476Z,2.30
2018-01-23T07:14:13.724Z,2.40
2018-01-23T07:16:43.770Z,2.40
2018-01-23T07:19:12.761Z,2.40
2018-01-23T07:21:47.333Z,2.40
2018-01-23T07:24:32.769Z,2.50
2018-01-23T07:27:00.817Z,2.50
2018-01-23T07:29:36.581Z,2.50
2018-01-23T07:32:15.464Z,2.50
2018-01-23T07:34:51.448Z,2.50
2018-01-23T07:37:21.232Z,2.50
2018-01-23T07:39:49.260Z,2.50
2018-01-23T07:42:31.653Z,2.60
2018-01-23T07:45:03.180Z,2.60
2018-01-23T07:47:32.124Z,2.60
2018-01-23T07:50:00.377Z,2.70
2018-01-23T07:52:31.060Z,2.70
2018-01-23T07:55:03.457Z,2.70
2018-01-23T07:57:33.400Z,2.80
2018-01-23T08:00:13.688Z,2.80
2018-01-23T08:02:45.069Z,2.90
2018-01-23T08:05:19.716Z,3.00
2018-01-23T08:07:48.640Z,3.00
2018-01-23T08:10:20.344Z,3.00
2018-01-23T08:12:50.360Z,3.10
2018-01-23T08:15:22.012Z,3.10
2018-01-23T08:17:56.456Z,3.10
2018-01-23T08:20:25.456Z,3.20
2018-01-23T08:22:53.484Z,3.20
2018-01-23T08:25:27.876Z,3.20
2018-01-23T08:27:56.824Z,3.20
2018-01-23T08:30:27.565Z,3.30
2018-01-23T08:32:55.592Z,3.30
2018-01-23T08:38:20.000Z,3.40
2018-01-23T08:40:52.184Z,3.40
2018-01-23T08:43:20.980Z,3.60
2018-01-23T08:45:56.388Z,3.60
2018-01-23T08:48:27.928Z,3.60
2018-01-23T08:50:55.980Z,3.60
2018-01-23T08:53:25.020Z,3.60
2018-01-23T08:55:56.964Z,3.70
2018-01-23T08:58:30.732Z,3.60
2018-01-23T09:03:53.640Z,3.50
2018-01-23T09:06:27.312Z,3.50
2018-01-23T09:08:57.228Z,3.60
2018-01-23T09:11:33.588Z,3.50
2018-01-23T09:14:11.740Z,3.50
2018-01-23T09:17:04.848Z,3.60
2018-01-23T09:22:27.861Z,3.50
2018-01-23T09:24:55.888Z,3.50
2018-01-23T09:27:25.835Z,3.50
2018-01-23T09:29:54.995Z,3.50
2018-01-23T09:32:24.896Z,3.50
2018-01-23T09:34:55.368Z,3.50
2018-01-23T09:37:27.452Z,3.60
2018-01-23T09:40:03.180Z,3.60
2018-01-23T09:42:35.668Z,3.60
2018-01-23T09:45:15.492Z,3.70
2018-01-23T09:47:57.136Z,3.80
2018-01-23T09:50:40.000Z,3.80
2018-01-23T09:53:11.684Z,3.70
2018-01-23T09:55:40.691Z,3.80
2018-01-23T09:58:14.300Z,3.90
2018-01-23T10:00:56.397Z,3.90
2018-01-23T10:03:25.371Z,4.00
2018-01-23T10:05:58.648Z,4.20
2018-01-23T10:08:44.841Z,4.30
2018-01-23T10:11:12.875Z,4.40
2018-01-23T10:14:00.204Z,4.50
2018-01-23T10:28:28.784Z,5.00
2018-01-23T10:31:22.671Z,5.10
2018-01-23T10:33:56.343Z,5.00
2018-01-23T10:36:36.083Z,5.20
2018-01-23T10:39:05.111Z,5.20
2018-01-23T10:47:26.351Z,5.20
2018-01-23T10:50:06.847Z,5.20
2018-01-23T10:52:34.851Z,5.30
2018-01-23T10:55:02.863Z,5.30
2018-01-23T11:03:40.215Z,5.50
2018-01-23T11:06:27.827Z,5.30
2018-01-23T11:09:02.339Z,5.30
2018-01-23T11:14:34.371Z,5.60
2018-01-23T11:17:23.086Z,5.50
2018-01-23T11:19:55.235Z,5.60
2018-01-23T11:22:27.091Z,5.70
2018-01-23T11:25:02.407Z,5.80
2018-01-23T11:27:31.443Z,6.00
2018-01-23T11:30:12.379Z,6.10
2018-01-23T11:32:58.721Z,6.00
2018-01-23T11:35:49.167Z,6.00
2018-01-23T11:38:20.135Z,6.00
2018-01-23T11:40:54.531Z,5.90
2018-01-23T11:43:32.531Z,5.90
2018-01-23T11:46:04.819Z,6.00
2018-01-23T11:48:43.527Z,6.00
2018-01-23T11:51:17.355Z,6.10
2018-01-23T11:53:45.395Z,6.00
2018-01-23T11:56:15.299Z,6.00
2018-01-23T11:58:44.219Z,5.90
2018-01-23T12:01:16.451Z,5.90
2018-01-23T12:03:51.925Z,6.00
2018-01-23T12:06:26.871Z,6.00
2018-01-23T12:08:56.878Z,6.00
2018-01-23T12:11:26.935Z,6.00
2018-01-23T12:13:57.603Z,6.10
2018-01-23T12:16:28.135Z,6.10
2018-01-23T12:18:56.151Z,6.20
2018-01-23T12:21:26.146Z,6.20
2018-01-23T12:23:57.602Z,6.30
2018-01-23T12:26:34.651Z,6.50
2018-01-23T12:29:02.667Z,6.40
2018-01-23T12:31:31.669Z,6.30
2018-01-23T12:34:01.695Z,6.40
2018-01-23T12:36:44.438Z,6.80
2018-01-23T12:39:13.359Z,6.80
2018-01-23T12:41:44.814Z,7.00
2018-01-23T12:44:13.835Z,7.00
2018-01-23T12:46:42.762Z,6.80
2018-01-23T12:49:12.670Z,6.80
2018-01-23T12:51:42.630Z,6.70
2018-01-23T12:54:12.662Z,6.50
2018-01-23T12:56:44.406Z,6.40
2018-01-23T12:59:18.762Z,6.30
2018-01-23T13:01:57.511Z,6.10
2018-01-23T13:04:28.870Z,6.10
2018-01-23T13:06:58.810Z,6.20
2018-01-23T13:09:30.426Z,6.30
2018-01-23T13:11:58.454Z,6.40
2018-01-23T13:14:29.122Z,6.90
2018-01-23T13:34:39.890Z,6.60
2018-01-23T13:37:12.782Z,6.50
2018-01-23T13:42:39.902Z,6.40
2018-01-23T13:45:21.415Z,6.50
2018-01-23T13:47:51.314Z,6.50
2018-01-23T13:50:20.090Z,6.60
2018-01-23T13:52:50.814Z,6.50
2018-01-23T13:55:42.474Z,6.50
2018-01-23T13:58:22.854Z,6.60
2018-01-23T14:01:01.779Z,6.60
2018-01-23T14:03:49.166Z,6.50
2018-01-23T14:06:34.290Z,6.50
2018-01-23T14:09:19.166Z,6.70
2018-01-23T14:11:57.170Z,6.70
2018-01-23T14:14:45.169Z,6.80
2018-01-23T14:17:24.506Z,6.70
2018-01-23T14:19:58.282Z,6.70
2018-01-23T14:22:43.878Z,6.40
2018-01-23T14:28:32.454Z,6.00
2018-01-23T14:31:13.770Z,6.00
2018-01-23T14:33:43.794Z,5.80
2018-01-23T14:42:02.285Z,5.50
2018-01-23T14:44:31.214Z,5.50
2018-01-23T14:47:00.114Z,5.50
2018-01-23T14:49:37.142Z,5.50
2018-01-23T14:52:09.159Z,5.50
2018-01-23T14:54:38.078Z,5.50
2018-01-23T14:57:09.798Z,5.50
2018-01-23T14:59:46.166Z,5.40
2018-01-23T15:02:17.459Z,5.40
2018-01-23T15:04:51.322Z,5.50
2018-01-23T15:07:25.778Z,6.10
2018-01-23T15:09:55.762Z,7.40
2018-01-23T15:12:23.782Z,8.50
2018-01-23T15:14:55.406Z,9.70
2018-01-23T15:17:24.297Z,10.70
2018-01-23T15:19:58.761Z,10.90
2018-01-23T15:22:30.398Z,10.40
2018-01-23T15:24:59.310Z,10.40
2018-01-23T15:27:28.118Z,9.40
2018-01-23T15:29:56.874Z,8.30
2018-01-23T15:32:24.882Z,8.20
2018-01-23T15:34:58.562Z,7.00
2018-01-23T15:37:28.222Z,5.20
2018-01-23T15:39:56.270Z,5.20
2018-01-23T15:42:30.009Z,4.60
2018-01-23T15:44:58.898Z,4.10
2018-01-23T15:47:30.890Z,3.70
2018-01-23T15:49:59.670Z,3.20
2018-01-23T15:52:30.482Z,3.00
2018-01-23T15:54:58.514Z,2.90
2018-01-23T15:57:26.518Z,2.80
2018-01-23T15:59:54.550Z,2.80
2018-01-23T16:02:22.562Z,2.70
2018-01-23T16:04:50.550Z,2.70
2018-01-23T16:07:19.490Z,2.70
2018-01-23T16:09:53.630Z,2.80
2018-01-23T16:12:45.438Z,2.80
2018-01-23T16:15:17.458Z,2.90
2018-01-23T16:17:50.514Z,2.80
2018-01-23T16:20:25.114Z,2.70
2018-01-23T16:22:59.526Z,2.70
2018-01-23T16:25:30.688Z,2.70
2018-01-23T16:27:59.593Z,2.70
2018-01-23T16:30:27.622Z,2.70
2018-01-23T16:32:55.630Z,2.70
2018-01-23T16:35:26.962Z,2.70
2018-01-23T16:37:59.618Z,2.80
2018-01-23T16:40:34.334Z,2.80
2018-01-23T16:43:12.138Z,2.80
2018-01-23T16:45:40.142Z,2.90
2018-01-23T16:48:09.134Z,2.90
2018-01-23T16:50:37.130Z,2.90
2018-01-23T16:53:05.937Z,2.90
2018-01-23T16:55:34.870Z,2.80
2018-01-23T16:58:02.894Z,2.90
2018-01-23T17:00:46.270Z,2.90
2018-01-23T17:03:17.970Z,2.90
2018-01-23T17:05:46.261Z,2.90
2018-01-23T17:08:18.598Z,2.90
2018-01-23T17:10:47.578Z,3.00
2018-01-23T17:13:15.598Z,3.00
2018-01-23T17:15:43.614Z,3.10
2018-01-23T17:18:16.290Z,3.10
2018-01-23T17:20:47.929Z,3.10
2018-01-23T17:23:15.933Z,3.10
2018-01-23T17:25:43.942Z,3.10
2018-01-23T17:28:13.903Z,3.10
2018-01-23T17:30:47.290Z,3.10
2018-01-23T17:33:16.189Z,3.10
2018-01-23T17:35:45.097Z,3.10
2018-01-23T17:38:14.057Z,3.10
2018-01-23T17:40:42.697Z,3.10
2018-01-23T17:43:12.611Z,3.10
2018-01-23T17:48:35.729Z,3.00
2018-01-23T17:51:06.177Z,2.90
2018-01-23T17:53:35.145Z,2.90
2018-01-23T17:56:07.693Z,2.90
2018-01-23T17:58:35.709Z,2.90
2018-01-23T18:01:03.733Z,2.90
2018-01-23T18:03:31.749Z,2.90
2018-01-23T18:05:59.749Z,2.90
2018-01-23T18:08:30.433Z,3.00
2018-01-23T18:10:58.449Z,3.00
2018-01-23T18:13:27.230Z,3.00
2018-01-23T18:15:55.997Z,3.00
2018-01-23T18:18:24.017Z,3.00
2018-01-23T18:20:52.045Z,3.10
2018-01-23T18:23:20.097Z,3.00
2018-01-23T18:25:48.113Z,3.00
2018-01-23T18:28:16.137Z,3.00
2018-01-23T18:30:48.669Z,3.00
2018-01-23T18:33:26.897Z,3.00
2018-01-23T18:35:55.968Z,3.00
2018-01-23T18:38:23.985Z,3.00
2018-01-23T18:40:52.025Z,2.90
2018-01-23T18:43:32.153Z,2.90
2018-01-23T18:46:01.577Z,2.90
2018-01-23T18:48:29.585Z,2.90
2018-01-23T18:51:01.041Z,2.90
2018-01-23T18:53:30.041Z,2.90
2018-01-23T18:55:59.037Z,3.00
2018-01-23T18:58:27.949Z,2.90
2018-01-23T19:00:56.744Z,2.90
2018-01-23T19:03:27.233Z,2.90
2018-01-23T19:05:56.201Z,2.90
2018-01-23T19:08:24.209Z,2.90
2018-01-23T19:10:52.972Z,2.90
2018-01-23T19:13:22.493Z,3.00
2018-01-23T19:15:51.332Z,3.00
2018-01-23T19:18:23.409Z,3.00
2018-01-23T19:20:55.365Z,3.10
2018-01-23T19:23:23.384Z,3.10
2018-01-23T19:25:55.833Z,3.20
2018-01-23T19:28:24.425Z,3.20
2018-01-23T19:30:52.437Z,3.20
2018-01-23T19:33:21.338Z,3.20
2018-01-23T19:35:49.352Z,3.20
2018-01-23T19:38:17.360Z,3.20
2018-01-23T19:40:45.377Z,3.20
2018-01-23T19:43:13.413Z,3.20
2018-01-23T19:45:41.416Z,3.20
2018-01-23T19:48:09.701Z,3.20
2018-01-23T19:50:40.522Z,3.30
2018-01-23T19:53:14.056Z,3.30
2018-01-23T19:55:42.861Z,3.30
2018-01-23T19:58:11.624Z,3.30
2018-01-23T20:00:43.144Z,3.30
2018-01-23T20:03:15.935Z,3.40
2018-01-23T20:05:43.948Z,3.40
2018-01-23T20:08:12.884Z,3.40
2018-01-23T20:10:40.896Z,3.50
2018-01-23T20:13:09.656Z,3.60
2018-01-23T20:15:37.664Z,3.50
2018-01-23T20:18:06.440Z,3.50
2018-01-23T20:20:37.296Z,3.50
2018-01-23T20:23:05.316Z,3.50
2018-01-23T20:25:33.332Z,3.50
2018-01-23T20:28:02.108Z,3.50
2018-01-23T20:30:30.884Z,3.50
2018-01-23T20:32:59.656Z,3.40
2018-01-23T20:35:28.628Z,3.40
2018-01-23T20:38:01.808Z,3.40
2018-01-23T20:40:29.812Z,3.30
2018-01-23T20:42:59.708Z,3.30
2018-01-23T20:45:28.600Z,3.20
2018-01-23T20:47:57.576Z,3.20
2018-01-23T20:50:25.584Z,3.10
2018-01-23T20:52:54.352Z,3.10
2018-01-23T20:55:23.328Z,3.10
2018-01-23T20:57:51.344Z,3.10
2018-01-23T21:00:22.024Z,3.20
2018-01-23T21:02:50.036Z,3.20
2018-01-23T21:05:18.948Z,3.20
2018-01-23T21:07:47.717Z,3.10
2018-01-23T21:10:18.412Z,3.20
2018-01-23T21:12:46.412Z,3.10
2018-01-23T21:15:15.368Z,3.20
2018-01-23T21:17:43.636Z,3.20
2018-01-23T21:20:17.568Z,3.20
2018-01-23T21:22:46.472Z,3.20
2018-01-23T21:25:14.480Z,3.20
2018-01-23T21:27:42.484Z,3.20
2018-01-23T21:30:12.492Z,3.20
2018-01-23T21:32:41.488Z,3.30
2018-01-23T21:35:11.408Z,3.30
2018-01-23T21:37:44.096Z,3.20
2018-01-23T21:40:13.075Z,3.20
2018-01-23T21:42:48.588Z,3.10
2018-01-23T21:45:33.316Z,3.10
2018-01-23T21:48:02.092Z,3.10
2018-01-23T21:50:32.100Z,3.00
2018-01-23T21:53:01.080Z,3.00
2018-01-23T21:55:29.108Z,2.90
2018-01-23T21:57:57.124Z,2.80
2018-01-23T22:00:26.172Z,2.80
2018-01-23T22:03:00.132Z,2.90
2018-01-23T22:05:35.640Z,2.90
2018-01-23T22:08:03.651Z,3.00
2018-01-23T22:10:31.686Z,3.00
2018-01-23T22:13:00.696Z,3.00
2018-01-23T22:15:28.700Z,2.90
2018-01-23T22:18:02.004Z,2.80
2018-01-23T22:20:31.695Z,2.80
2018-01-23T22:23:01.700Z,2.80
2018-01-23T22:25:29.732Z,2.70
2018-01-23T22:28:01.640Z,2.70
2018-01-23T22:30:31.583Z,2.70
2018-01-23T22:33:01.628Z,2.60
2018-01-23T22:35:34.896Z,2.60
2018-01-23T22:38:05.721Z,2.70
2018-01-23T22:40:43.652Z,2.70
2018-01-23T22:43:11.880Z,2.70
2018-01-23T22:45:40.832Z,2.80
2018-01-23T22:48:16.916Z,2.80
2018-01-23T22:50:55.687Z,2.90
2018-01-23T22:53:24.664Z,2.90
2018-01-23T22:56:03.304Z,2.90
2018-01-23T22:58:33.259Z,2.90
2018-01-23T23:01:01.276Z,3.00
2018-01-23T23:03:39.623Z,3.00
2018-01-23T23:06:18.569Z,3.00
2018-01-23T23:08:47.564Z,3.10
2018-01-23T23:11:15.564Z,3.10
2018-01-23T23:13:45.316Z,3.20
2018-01-23T23:16:14.339Z,3.10
2018-01-23T23:18:48.284Z,3.20
2018-01-23T23:21:24.732Z,3.10
2018-01-23T23:23:53.512Z,3.10
2018-01-23T23:26:22.576Z,3.10
2018-01-23T23:28:53.827Z,3.10
2018-01-23T23:31:25.816Z,3.10
2018-01-23T23:33:56.432Z,3.20
2018-01-23T23:36:25.403Z,3.10
2018-01-23T23:38:54.392Z,3.20
2018-01-23T23:41:22.395Z,3.20
2018-01-23T23:43:54.960Z,3.20
2018-01-23T23:46:25.987Z,3.10
2018-01-23T23:49:01.187Z,3.10
2018-01-23T23:51:30.112Z,3.10
2018-01-23T23:54:03.207Z,3.10
2018-01-23T23:56:32.195Z,3.00
2018-01-23T23:59:00.215Z,3.00
